sensor_id;sensor_type;location;lat;lon;timestamp;P1;durP1;ratioP1;P2;durP2;ratioP2
10045;SDS011;5063;50.878;4.742;2022-12-18T00:01:16;29.80;;;16.73;;
10045;SDS011;5063;50.878;4.742;2022-12-18T00:03:46;33.27;;;17.13;;
10045;SDS011;5063;50.878;4.742;2022-12-18T00:06:12;28.23;;;16.77;;
10045;SDS011;5063;50.878;4.742;2022-12-18T00:08:39;32.00;;;16.73;;
10045;SDS011;5063;50.878;4.742;2022-12-18T00:11:10;33.17;;;17.57;;
10045;SDS011;5063;50.878;4.742;2022-12-18T00:13:38;29.50;;;16.60;;
10045;SDS011;5063;50.878;4.742;2022-12-18T00:16:04;32.63;;;16.13;;
10045;SDS011;5063;50.878;4.742;2022-12-18T00:18:51;25.37;;;15.87;;
10045;SDS011;5063;50.878;4.742;2022-12-18T00:21:18;29.30;;;16.83;;
10045;SDS011;5063;50.878;4.742;2022-12-18T00:23:45;27.43;;;15.70;;
10045;SDS011;5063;50.878;4.742;2022-12-18T00:26:12;27.57;;;15.13;;
10045;SDS011;5063;50.878;4.742;2022-12-18T00:28:43;26.00;;;14.43;;
10045;SDS011;5063;50.878;4.742;2022-12-18T00:31:10;26.53;;;16.53;;
10045;SDS011;5063;50.878;4.742;2022-12-18T00:33:38;28.57;;;15.70;;
10045;SDS011;5063;50.878;4.742;2022-12-18T00:36:05;32.07;;;16.23;;
10045;SDS011;5063;50.878;4.742;2022-12-18T00:38:36;26.00;;;16.20;;
10045;SDS011;5063;50.878;4.742;2022-12-18T00:41:06;28.20;;;16.07;;
10045;SDS011;5063;50.878;4.742;2022-12-18T00:43:32;30.67;;;17.17;;
10045;SDS011;5063;50.878;4.742;2022-12-18T00:45:58;26.57;;;14.67;;
10045;SDS011;5063;50.878;4.742;2022-12-18T00:48:26;28.10;;;15.20;;
10045;SDS011;5063;50.878;4.742;2022-12-18T00:50:52;23.33;;;13.63;;
10045;SDS011;5063;50.878;4.742;2022-12-18T00:53:18;22.73;;;12.93;;
10045;SDS011;5063;50.878;4.742;2022-12-18T00:55:44;25.67;;;13.33;;
10045;SDS011;5063;50.878;4.742;2022-12-18T00:58:11;28.80;;;13.43;;
10045;SDS011;5063;50.878;4.742;2022-12-18T01:00:38;21.97;;;11.83;;
10045;SDS011;5063;50.878;4.742;2022-12-18T01:03:04;19.97;;;11.43;;
10045;SDS011;5063;50.878;4.742;2022-12-18T01:05:30;19.57;;;12.57;;
10045;SDS011;5063;50.878;4.742;2022-12-18T01:07:57;27.73;;;13.93;;
10045;SDS011;5063;50.878;4.742;2022-12-18T01:10:23;28.23;;;13.77;;
10045;SDS011;5063;50.878;4.742;2022-12-18T01:12:50;23.60;;;13.13;;
10045;SDS011;5063;50.878;4.742;2022-12-18T01:15:16;32.33;;;16.60;;
10045;SDS011;5063;50.878;4.742;2022-12-18T01:17:43;31.80;;;15.27;;
10045;SDS011;5063;50.878;4.742;2022-12-18T01:20:10;25.70;;;14.17;;
10045;SDS011;5063;50.878;4.742;2022-12-18T01:22:37;26.33;;;15.20;;
10045;SDS011;5063;50.878;4.742;2022-12-18T01:25:03;27.43;;;15.87;;
10045;SDS011;5063;50.878;4.742;2022-12-18T01:27:29;27.40;;;14.63;;
10045;SDS011;5063;50.878;4.742;2022-12-18T01:29:55;24.07;;;14.77;;
10045;SDS011;5063;50.878;4.742;2022-12-18T01:32:21;31.43;;;14.53;;
10045;SDS011;5063;50.878;4.742;2022-12-18T01:34:47;27.17;;;14.87;;
10045;SDS011;5063;50.878;4.742;2022-12-18T01:37:13;24.63;;;13.97;;
10045;SDS011;5063;50.878;4.742;2022-12-18T01:39:39;22.33;;;13.33;;
10045;SDS011;5063;50.878;4.742;2022-12-18T01:42:09;25.43;;;13.70;;
10045;SDS011;5063;50.878;4.742;2022-12-18T01:49:48;24.70;;;13.90;;
10045;SDS011;5063;50.878;4.742;2022-12-18T01:52:14;27.63;;;14.50;;
10045;SDS011;5063;50.878;4.742;2022-12-18T01:54:40;28.83;;;14.30;;
10045;SDS011;5063;50.878;4.742;2022-12-18T01:57:06;26.50;;;13.33;;
10045;SDS011;5063;50.878;4.742;2022-12-18T01:59:32;22.70;;;12.90;;
10045;SDS011;5063;50.878;4.742;2022-12-18T02:01:59;25.40;;;14.03;;
10045;SDS011;5063;50.878;4.742;2022-12-18T02:04:26;24.63;;;13.77;;
10045;SDS011;5063;50.878;4.742;2022-12-18T02:09:47;23.60;;;12.87;;
10045;SDS011;5063;50.878;4.742;2022-12-18T02:12:18;26.23;;;12.77;;
10045;SDS011;5063;50.878;4.742;2022-12-18T02:17:22;23.70;;;11.97;;
10045;SDS011;5063;50.878;4.742;2022-12-18T02:23:03;26.10;;;13.17;;
10045;SDS011;5063;50.878;4.742;2022-12-18T02:28:30;18.13;;;11.27;;
10045;SDS011;5063;50.878;4.742;2022-12-18T02:31:01;21.60;;;11.53;;
10045;SDS011;5063;50.878;4.742;2022-12-18T02:33:29;23.70;;;11.73;;
10045;SDS011;5063;50.878;4.742;2022-12-18T02:35:57;20.90;;;11.23;;
10045;SDS011;5063;50.878;4.742;2022-12-18T02:38:24;23.47;;;11.17;;
10045;SDS011;5063;50.878;4.742;2022-12-18T02:40:50;20.43;;;11.27;;
10045;SDS011;5063;50.878;4.742;2022-12-18T02:43:18;21.13;;;11.87;;
10045;SDS011;5063;50.878;4.742;2022-12-18T02:45:57;21.40;;;12.63;;
10045;SDS011;5063;50.878;4.742;2022-12-18T02:48:28;19.30;;;11.17;;
10045;SDS011;5063;50.878;4.742;2022-12-18T02:51:30;20.67;;;12.00;;
10045;SDS011;5063;50.878;4.742;2022-12-18T02:54:00;24.23;;;13.20;;
10045;SDS011;5063;50.878;4.742;2022-12-18T02:56:41;20.93;;;11.70;;
10045;SDS011;5063;50.878;4.742;2022-12-18T02:59:17;22.63;;;13.00;;
10045;SDS011;5063;50.878;4.742;2022-12-18T03:01:54;27.80;;;12.70;;
10045;SDS011;5063;50.878;4.742;2022-12-18T03:06:53;22.73;;;12.83;;
10045;SDS011;5063;50.878;4.742;2022-12-18T03:09:23;22.87;;;12.60;;
10045;SDS011;5063;50.878;4.742;2022-12-18T03:12:12;23.47;;;13.13;;
10045;SDS011;5063;50.878;4.742;2022-12-18T03:15:13;23.13;;;11.77;;
10045;SDS011;5063;50.878;4.742;2022-12-18T03:17:54;19.80;;;10.40;;
10045;SDS011;5063;50.878;4.742;2022-12-18T03:20:28;25.90;;;11.33;;
10045;SDS011;5063;50.878;4.742;2022-12-18T03:22:57;22.07;;;10.53;;
10045;SDS011;5063;50.878;4.742;2022-12-18T03:25:29;17.97;;;9.47;;
10045;SDS011;5063;50.878;4.742;2022-12-18T03:27:56;20.67;;;12.33;;
10045;SDS011;5063;50.878;4.742;2022-12-18T03:30:26;21.43;;;10.70;;
10045;SDS011;5063;50.878;4.742;2022-12-18T03:35:45;24.13;;;10.73;;
10045;SDS011;5063;50.878;4.742;2022-12-18T03:38:11;20.17;;;10.97;;
10045;SDS011;5063;50.878;4.742;2022-12-18T03:40:43;24.90;;;11.40;;
10045;SDS011;5063;50.878;4.742;2022-12-18T03:43:20;19.07;;;10.70;;
10045;SDS011;5063;50.878;4.742;2022-12-18T03:45:52;19.80;;;10.77;;
10045;SDS011;5063;50.878;4.742;2022-12-18T03:48:30;22.80;;;10.20;;
10045;SDS011;5063;50.878;4.742;2022-12-18T03:51:05;15.00;;;8.83;;
10045;SDS011;5063;50.878;4.742;2022-12-18T03:53:44;18.23;;;11.47;;
10045;SDS011;5063;50.878;4.742;2022-12-18T03:56:15;20.97;;;11.90;;
10045;SDS011;5063;50.878;4.742;2022-12-18T03:58:42;23.97;;;11.30;;
10045;SDS011;5063;50.878;4.742;2022-12-18T04:01:09;30.43;;;12.07;;
10045;SDS011;5063;50.878;4.742;2022-12-18T04:03:38;17.50;;;9.90;;
10045;SDS011;5063;50.878;4.742;2022-12-18T04:06:05;19.73;;;10.93;;
10045;SDS011;5063;50.878;4.742;2022-12-18T04:08:32;20.10;;;10.47;;
10045;SDS011;5063;50.878;4.742;2022-12-18T04:11:00;15.93;;;10.17;;
10045;SDS011;5063;50.878;4.742;2022-12-18T04:13:32;16.33;;;9.83;;
10045;SDS011;5063;50.878;4.742;2022-12-18T04:16:00;19.37;;;9.83;;
10045;SDS011;5063;50.878;4.742;2022-12-18T04:18:26;18.10;;;9.67;;
10045;SDS011;5063;50.878;4.742;2022-12-18T04:20:52;16.73;;;10.43;;
10045;SDS011;5063;50.878;4.742;2022-12-18T04:23:17;16.80;;;10.47;;
10045;SDS011;5063;50.878;4.742;2022-12-18T04:25:43;16.63;;;9.53;;
10045;SDS011;5063;50.878;4.742;2022-12-18T04:28:09;16.80;;;9.47;;
10045;SDS011;5063;50.878;4.742;2022-12-18T04:30:34;19.23;;;10.37;;
10045;SDS011;5063;50.878;4.742;2022-12-18T04:33:00;16.07;;;9.77;;
10045;SDS011;5063;50.878;4.742;2022-12-18T04:35:26;15.30;;;8.93;;
10045;SDS011;5063;50.878;4.742;2022-12-18T04:37:52;17.80;;;9.90;;
10045;SDS011;5063;50.878;4.742;2022-12-18T04:40:17;16.97;;;10.17;;
10045;SDS011;5063;50.878;4.742;2022-12-18T04:42:43;22.57;;;10.90;;
10045;SDS011;5063;50.878;4.742;2022-12-18T04:45:09;20.50;;;10.70;;
10045;SDS011;5063;50.878;4.742;2022-12-18T04:47:35;20.87;;;10.53;;
10045;SDS011;5063;50.878;4.742;2022-12-18T04:50:00;19.70;;;11.60;;
10045;SDS011;5063;50.878;4.742;2022-12-18T04:52:26;20.37;;;11.13;;
10045;SDS011;5063;50.878;4.742;2022-12-18T04:54:52;19.77;;;11.07;;
10045;SDS011;5063;50.878;4.742;2022-12-18T04:57:17;22.03;;;11.93;;
10045;SDS011;5063;50.878;4.742;2022-12-18T04:59:43;17.17;;;10.30;;
10045;SDS011;5063;50.878;4.742;2022-12-18T05:02:10;18.20;;;11.00;;
10045;SDS011;5063;50.878;4.742;2022-12-18T05:04:36;23.27;;;11.40;;
10045;SDS011;5063;50.878;4.742;2022-12-18T05:07:01;18.00;;;10.67;;
10045;SDS011;5063;50.878;4.742;2022-12-18T05:09:27;22.13;;;12.03;;
10045;SDS011;5063;50.878;4.742;2022-12-18T05:11:53;26.87;;;11.33;;
10045;SDS011;5063;50.878;4.742;2022-12-18T05:14:18;17.40;;;11.20;;
10045;SDS011;5063;50.878;4.742;2022-12-18T05:16:44;19.87;;;10.37;;
10045;SDS011;5063;50.878;4.742;2022-12-18T05:19:10;16.77;;;9.80;;
10045;SDS011;5063;50.878;4.742;2022-12-18T05:21:36;14.73;;;8.43;;
10045;SDS011;5063;50.878;4.742;2022-12-18T05:24:01;16.83;;;9.30;;
10045;SDS011;5063;50.878;4.742;2022-12-18T05:26:27;14.67;;;7.93;;
10045;SDS011;5063;50.878;4.742;2022-12-18T05:28:53;17.00;;;8.53;;
10045;SDS011;5063;50.878;4.742;2022-12-18T05:31:19;18.10;;;8.90;;
10045;SDS011;5063;50.878;4.742;2022-12-18T05:33:44;13.47;;;8.97;;
10045;SDS011;5063;50.878;4.742;2022-12-18T05:36:10;16.47;;;8.47;;
10045;SDS011;5063;50.878;4.742;2022-12-18T05:38:37;15.07;;;8.13;;
10045;SDS011;5063;50.878;4.742;2022-12-18T05:41:04;17.83;;;9.07;;
10045;SDS011;5063;50.878;4.742;2022-12-18T05:43:30;15.10;;;8.73;;
10045;SDS011;5063;50.878;4.742;2022-12-18T05:46:02;14.27;;;8.83;;
10045;SDS011;5063;50.878;4.742;2022-12-18T05:48:32;16.47;;;9.30;;
10045;SDS011;5063;50.878;4.742;2022-12-18T05:51:03;15.50;;;9.13;;
10045;SDS011;5063;50.878;4.742;2022-12-18T05:53:32;17.20;;;10.43;;
10045;SDS011;5063;50.878;4.742;2022-12-18T05:55:59;19.83;;;9.17;;
10045;SDS011;5063;50.878;4.742;2022-12-18T05:58:29;16.27;;;9.03;;
10045;SDS011;5063;50.878;4.742;2022-12-18T06:00:56;18.60;;;9.07;;
10045;SDS011;5063;50.878;4.742;2022-12-18T06:03:22;16.67;;;8.83;;
10045;SDS011;5063;50.878;4.742;2022-12-18T06:05:48;22.23;;;9.43;;
10045;SDS011;5063;50.878;4.742;2022-12-18T06:08:13;19.40;;;9.63;;
10045;SDS011;5063;50.878;4.742;2022-12-18T06:10:39;15.23;;;9.00;;
10045;SDS011;5063;50.878;4.742;2022-12-18T06:13:06;17.87;;;9.67;;
10045;SDS011;5063;50.878;4.742;2022-12-18T06:15:31;17.17;;;9.80;;
10045;SDS011;5063;50.878;4.742;2022-12-18T06:17:57;17.80;;;8.77;;
10045;SDS011;5063;50.878;4.742;2022-12-18T06:20:25;15.20;;;8.73;;
10045;SDS011;5063;50.878;4.742;2022-12-18T06:22:50;14.60;;;9.17;;
10045;SDS011;5063;50.878;4.742;2022-12-18T06:25:16;18.73;;;9.73;;
10045;SDS011;5063;50.878;4.742;2022-12-18T06:27:42;14.50;;;9.00;;
10045;SDS011;5063;50.878;4.742;2022-12-18T06:30:08;27.40;;;10.47;;
10045;SDS011;5063;50.878;4.742;2022-12-18T06:32:34;22.70;;;9.97;;
10045;SDS011;5063;50.878;4.742;2022-12-18T06:35:00;16.07;;;9.23;;
10045;SDS011;5063;50.878;4.742;2022-12-18T06:37:25;20.77;;;9.57;;
10045;SDS011;5063;50.878;4.742;2022-12-18T06:39:52;17.30;;;9.20;;
10045;SDS011;5063;50.878;4.742;2022-12-18T06:42:18;19.80;;;9.70;;
10045;SDS011;5063;50.878;4.742;2022-12-18T06:44:44;23.00;;;10.33;;
10045;SDS011;5063;50.878;4.742;2022-12-18T06:47:09;19.23;;;10.43;;
10045;SDS011;5063;50.878;4.742;2022-12-18T06:49:35;27.10;;;12.27;;
10045;SDS011;5063;50.878;4.742;2022-12-18T06:52:01;21.80;;;11.40;;
10045;SDS011;5063;50.878;4.742;2022-12-18T06:54:26;16.83;;;9.67;;
10045;SDS011;5063;50.878;4.742;2022-12-18T06:56:52;22.73;;;11.07;;
10045;SDS011;5063;50.878;4.742;2022-12-18T06:59:18;22.33;;;12.23;;
10045;SDS011;5063;50.878;4.742;2022-12-18T07:01:44;15.53;;;9.70;;
10045;SDS011;5063;50.878;4.742;2022-12-18T07:04:09;19.87;;;10.37;;
10045;SDS011;5063;50.878;4.742;2022-12-18T07:06:35;21.93;;;11.30;;
10045;SDS011;5063;50.878;4.742;2022-12-18T07:09:01;20.53;;;11.40;;
10045;SDS011;5063;50.878;4.742;2022-12-18T07:11:26;19.87;;;11.03;;
10045;SDS011;5063;50.878;4.742;2022-12-18T07:13:52;19.17;;;10.17;;
10045;SDS011;5063;50.878;4.742;2022-12-18T07:16:20;24.47;;;11.07;;
10045;SDS011;5063;50.878;4.742;2022-12-18T07:18:46;22.33;;;10.93;;
10045;SDS011;5063;50.878;4.742;2022-12-18T07:21:13;17.13;;;10.30;;
10045;SDS011;5063;50.878;4.742;2022-12-18T07:23:40;18.33;;;10.20;;
10045;SDS011;5063;50.878;4.742;2022-12-18T07:26:07;21.03;;;10.47;;
10045;SDS011;5063;50.878;4.742;2022-12-18T07:28:35;19.43;;;10.20;;
10045;SDS011;5063;50.878;4.742;2022-12-18T07:31:02;19.63;;;10.57;;
10045;SDS011;5063;50.878;4.742;2022-12-18T07:33:29;20.03;;;11.63;;
10045;SDS011;5063;50.878;4.742;2022-12-18T07:35:55;21.37;;;11.10;;
10045;SDS011;5063;50.878;4.742;2022-12-18T07:38:21;20.93;;;10.87;;
10045;SDS011;5063;50.878;4.742;2022-12-18T07:40:47;20.50;;;11.07;;
10045;SDS011;5063;50.878;4.742;2022-12-18T07:43:12;17.40;;;10.70;;
10045;SDS011;5063;50.878;4.742;2022-12-18T07:45:38;21.67;;;12.00;;
10045;SDS011;5063;50.878;4.742;2022-12-18T07:48:04;19.83;;;10.77;;
10045;SDS011;5063;50.878;4.742;2022-12-18T07:50:30;22.80;;;11.47;;
10045;SDS011;5063;50.878;4.742;2022-12-18T07:52:55;22.53;;;11.63;;
10045;SDS011;5063;50.878;4.742;2022-12-18T07:55:21;24.10;;;11.60;;
10045;SDS011;5063;50.878;4.742;2022-12-18T07:57:47;23.13;;;11.93;;
10045;SDS011;5063;50.878;4.742;2022-12-18T08:00:13;22.57;;;12.70;;
10045;SDS011;5063;50.878;4.742;2022-12-18T08:02:39;23.03;;;11.50;;
10045;SDS011;5063;50.878;4.742;2022-12-18T08:05:04;23.40;;;11.00;;
10045;SDS011;5063;50.878;4.742;2022-12-18T08:07:30;24.90;;;11.50;;
10045;SDS011;5063;50.878;4.742;2022-12-18T08:09:56;21.00;;;10.97;;
10045;SDS011;5063;50.878;4.742;2022-12-18T08:12:22;20.73;;;10.90;;
10045;SDS011;5063;50.878;4.742;2022-12-18T08:14:48;24.70;;;11.90;;
10045;SDS011;5063;50.878;4.742;2022-12-18T08:17:14;19.20;;;10.73;;
10045;SDS011;5063;50.878;4.742;2022-12-18T08:19:39;21.17;;;11.00;;
10045;SDS011;5063;50.878;4.742;2022-12-18T08:22:05;18.63;;;10.20;;
10045;SDS011;5063;50.878;4.742;2022-12-18T08:24:31;21.53;;;10.93;;
10045;SDS011;5063;50.878;4.742;2022-12-18T08:26:56;19.67;;;12.47;;
10045;SDS011;5063;50.878;4.742;2022-12-18T08:29:22;20.93;;;10.30;;
10045;SDS011;5063;50.878;4.742;2022-12-18T08:31:48;21.90;;;11.13;;
10045;SDS011;5063;50.878;4.742;2022-12-18T08:34:14;20.57;;;10.27;;
10045;SDS011;5063;50.878;4.742;2022-12-18T08:36:39;23.33;;;11.47;;
10045;SDS011;5063;50.878;4.742;2022-12-18T08:39:05;17.77;;;10.47;;
10045;SDS011;5063;50.878;4.742;2022-12-18T08:41:31;22.93;;;11.27;;
10045;SDS011;5063;50.878;4.742;2022-12-18T08:43:57;18.90;;;10.93;;
10045;SDS011;5063;50.878;4.742;2022-12-18T08:46:42;21.47;;;10.97;;
10045;SDS011;5063;50.878;4.742;2022-12-18T08:49:08;21.50;;;11.00;;
10045;SDS011;5063;50.878;4.742;2022-12-18T08:51:35;14.37;;;9.63;;
10045;SDS011;5063;50.878;4.742;2022-12-18T08:54:01;19.03;;;10.60;;
10045;SDS011;5063;50.878;4.742;2022-12-18T08:56:27;18.10;;;9.70;;
10045;SDS011;5063;50.878;4.742;2022-12-18T08:58:53;20.87;;;10.63;;
10045;SDS011;5063;50.878;4.742;2022-12-18T09:01:20;17.03;;;9.80;;
10045;SDS011;5063;50.878;4.742;2022-12-18T09:03:47;17.77;;;9.73;;
10045;SDS011;5063;50.878;4.742;2022-12-18T09:06:14;19.10;;;10.13;;
10045;SDS011;5063;50.878;4.742;2022-12-18T09:08:44;15.27;;;9.03;;
10045;SDS011;5063;50.878;4.742;2022-12-18T09:11:15;19.40;;;11.10;;
10045;SDS011;5063;50.878;4.742;2022-12-18T09:13:45;21.40;;;9.60;;
10045;SDS011;5063;50.878;4.742;2022-12-18T09:16:11;18.70;;;10.03;;
10045;SDS011;5063;50.878;4.742;2022-12-18T09:18:37;19.77;;;9.83;;
10045;SDS011;5063;50.878;4.742;2022-12-18T09:21:09;20.43;;;11.00;;
10045;SDS011;5063;50.878;4.742;2022-12-18T09:23:36;19.00;;;9.80;;
10045;SDS011;5063;50.878;4.742;2022-12-18T09:26:02;18.80;;;10.00;;
10045;SDS011;5063;50.878;4.742;2022-12-18T09:28:28;21.17;;;10.63;;
10045;SDS011;5063;50.878;4.742;2022-12-18T09:30:53;16.37;;;9.40;;
10045;SDS011;5063;50.878;4.742;2022-12-18T09:33:19;16.20;;;9.87;;
10045;SDS011;5063;50.878;4.742;2022-12-18T09:35:45;16.13;;;9.43;;
10045;SDS011;5063;50.878;4.742;2022-12-18T09:38:13;16.53;;;9.53;;
10045;SDS011;5063;50.878;4.742;2022-12-18T09:40:45;15.07;;;10.03;;
10045;SDS011;5063;50.878;4.742;2022-12-18T09:45:59;16.87;;;10.27;;
10045;SDS011;5063;50.878;4.742;2022-12-18T09:48:36;16.83;;;9.70;;
10045;SDS011;5063;50.878;4.742;2022-12-18T09:51:13;19.73;;;11.20;;
10045;SDS011;5063;50.878;4.742;2022-12-18T09:53:43;17.63;;;11.03;;
10045;SDS011;5063;50.878;4.742;2022-12-18T09:56:22;16.33;;;9.87;;
10045;SDS011;5063;50.878;4.742;2022-12-18T09:59:33;18.97;;;10.73;;
10045;SDS011;5063;50.878;4.742;2022-12-18T10:01:42;17.07;;;10.80;;
10045;SDS011;5063;50.878;4.742;2022-12-18T10:04:08;16.63;;;10.30;;
10045;SDS011;5063;50.878;4.742;2022-12-18T10:06:39;15.67;;;9.87;;
10045;SDS011;5063;50.878;4.742;2022-12-18T10:09:34;15.07;;;10.07;;
10045;SDS011;5063;50.878;4.742;2022-12-18T10:14:43;17.87;;;10.53;;
10045;SDS011;5063;50.878;4.742;2022-12-18T10:17:26;17.83;;;10.20;;
10045;SDS011;5063;50.878;4.742;2022-12-18T10:28:18;16.57;;;10.57;;
10045;SDS011;5063;50.878;4.742;2022-12-18T10:30:45;19.53;;;11.50;;
10045;SDS011;5063;50.878;4.742;2022-12-18T10:33:15;18.20;;;10.33;;
10045;SDS011;5063;50.878;4.742;2022-12-18T10:35:44;18.80;;;10.90;;
10045;SDS011;5063;50.878;4.742;2022-12-18T10:41:22;20.80;;;9.83;;
10045;SDS011;5063;50.878;4.742;2022-12-18T10:43:29;15.87;;;9.63;;
10045;SDS011;5063;50.878;4.742;2022-12-18T10:45:58;17.47;;;9.77;;
10045;SDS011;5063;50.878;4.742;2022-12-18T10:48:25;16.13;;;10.37;;
10045;SDS011;5063;50.878;4.742;2022-12-18T10:50:51;13.53;;;9.67;;
10045;SDS011;5063;50.878;4.742;2022-12-18T10:53:25;16.50;;;10.63;;
10045;SDS011;5063;50.878;4.742;2022-12-18T10:55:56;17.63;;;10.40;;
10045;SDS011;5063;50.878;4.742;2022-12-18T10:58:29;15.67;;;9.70;;
10045;SDS011;5063;50.878;4.742;2022-12-18T11:03:43;18.73;;;10.70;;
10045;SDS011;5063;50.878;4.742;2022-12-18T11:06:17;15.47;;;10.40;;
10045;SDS011;5063;50.878;4.742;2022-12-18T11:09:00;19.80;;;10.87;;
10045;SDS011;5063;50.878;4.742;2022-12-18T11:11:30;18.23;;;11.17;;
10045;SDS011;5063;50.878;4.742;2022-12-18T11:13:58;15.30;;;10.27;;
10045;SDS011;5063;50.878;4.742;2022-12-18T11:16:31;14.33;;;10.10;;
10045;SDS011;5063;50.878;4.742;2022-12-18T11:21:58;18.70;;;10.60;;
10045;SDS011;5063;50.878;4.742;2022-12-18T11:24:27;15.93;;;10.70;;
10045;SDS011;5063;50.878;4.742;2022-12-18T11:27:03;16.90;;;9.97;;
10045;SDS011;5063;50.878;4.742;2022-12-18T11:29:32;17.30;;;10.73;;
10045;SDS011;5063;50.878;4.742;2022-12-18T11:32:19;14.27;;;10.57;;
10045;SDS011;5063;50.878;4.742;2022-12-18T11:34:56;17.93;;;10.60;;
10045;SDS011;5063;50.878;4.742;2022-12-18T11:37:27;17.07;;;10.60;;
10045;SDS011;5063;50.878;4.742;2022-12-18T11:42:44;17.80;;;11.27;;
10045;SDS011;5063;50.878;4.742;2022-12-18T11:45:33;17.57;;;10.13;;
10045;SDS011;5063;50.878;4.742;2022-12-18T11:50:53;16.97;;;10.33;;
10045;SDS011;5063;50.878;4.742;2022-12-18T11:53:21;16.53;;;10.70;;
10045;SDS011;5063;50.878;4.742;2022-12-18T11:58:43;18.73;;;11.43;;
10045;SDS011;5063;50.878;4.742;2022-12-18T12:01:35;18.50;;;11.90;;
10045;SDS011;5063;50.878;4.742;2022-12-18T12:07:18;19.53;;;11.10;;
10045;SDS011;5063;50.878;4.742;2022-12-18T12:16:10;16.47;;;10.97;;
10045;SDS011;5063;50.878;4.742;2022-12-18T12:21:21;16.80;;;10.87;;
10045;SDS011;5063;50.878;4.742;2022-12-18T12:32:38;16.00;;;10.33;;
10045;SDS011;5063;50.878;4.742;2022-12-18T12:35:34;16.77;;;11.57;;
10045;SDS011;5063;50.878;4.742;2022-12-18T12:38:24;16.03;;;10.40;;
10045;SDS011;5063;50.878;4.742;2022-12-18T12:40:59;18.63;;;12.17;;
10045;SDS011;5063;50.878;4.742;2022-12-18T12:46:08;17.50;;;12.03;;
10045;SDS011;5063;50.878;4.742;2022-12-18T12:48:43;16.30;;;11.53;;
10045;SDS011;5063;50.878;4.742;2022-12-18T12:51:21;20.27;;;12.03;;
10045;SDS011;5063;50.878;4.742;2022-12-18T12:53:56;16.37;;;11.70;;
10045;SDS011;5063;50.878;4.742;2022-12-18T12:56:26;18.53;;;12.27;;
10045;SDS011;5063;50.878;4.742;2022-12-18T12:59:24;19.30;;;12.17;;
10045;SDS011;5063;50.878;4.742;2022-12-18T13:02:22;19.23;;;11.83;;
10045;SDS011;5063;50.878;4.742;2022-12-18T13:08:07;17.13;;;12.10;;
10045;SDS011;5063;50.878;4.742;2022-12-18T13:10:35;15.50;;;10.70;;
10045;SDS011;5063;50.878;4.742;2022-12-18T13:18:19;19.33;;;12.47;;
10045;SDS011;5063;50.878;4.742;2022-12-18T13:25:49;14.70;;;10.40;;
10045;SDS011;5063;50.878;4.742;2022-12-18T13:31:13;18.27;;;11.17;;
10045;SDS011;5063;50.878;4.742;2022-12-18T13:36:45;17.37;;;11.00;;
10045;SDS011;5063;50.878;4.742;2022-12-18T13:41:41;18.93;;;11.30;;
10045;SDS011;5063;50.878;4.742;2022-12-18T13:47:02;16.30;;;11.53;;
10045;SDS011;5063;50.878;4.742;2022-12-18T13:49:39;16.37;;;10.70;;
10045;SDS011;5063;50.878;4.742;2022-12-18T13:52:18;16.73;;;11.27;;
10045;SDS011;5063;50.878;4.742;2022-12-18T13:54:59;19.47;;;11.77;;
10045;SDS011;5063;50.878;4.742;2022-12-18T13:57:34;16.53;;;10.90;;
10045;SDS011;5063;50.878;4.742;2022-12-18T14:02:48;18.07;;;11.50;;
10045;SDS011;5063;50.878;4.742;2022-12-18T14:07:51;17.07;;;11.43;;
10045;SDS011;5063;50.878;4.742;2022-12-18T14:10:18;19.40;;;11.90;;
10045;SDS011;5063;50.878;4.742;2022-12-18T14:12:46;19.03;;;11.93;;
10045;SDS011;5063;50.878;4.742;2022-12-18T14:17:58;23.80;;;12.50;;
10045;SDS011;5063;50.878;4.742;2022-12-18T14:20:43;19.53;;;12.00;;
10045;SDS011;5063;50.878;4.742;2022-12-18T14:25:59;18.00;;;11.37;;
10045;SDS011;5063;50.878;4.742;2022-12-18T14:28:26;20.40;;;12.50;;
10045;SDS011;5063;50.878;4.742;2022-12-18T14:30:52;21.83;;;12.73;;
10045;SDS011;5063;50.878;4.742;2022-12-18T14:35:54;21.73;;;12.93;;
10045;SDS011;5063;50.878;4.742;2022-12-18T14:38:32;22.50;;;13.47;;
10045;SDS011;5063;50.878;4.742;2022-12-18T14:41:03;18.90;;;12.53;;
10045;SDS011;5063;50.878;4.742;2022-12-18T14:43:32;20.63;;;12.30;;
10045;SDS011;5063;50.878;4.742;2022-12-18T14:46:00;22.80;;;13.23;;
10045;SDS011;5063;50.878;4.742;2022-12-18T14:51:05;20.27;;;12.73;;
10045;SDS011;5063;50.878;4.742;2022-12-18T14:53:42;19.23;;;12.33;;
10045;SDS011;5063;50.878;4.742;2022-12-18T14:56:23;22.03;;;12.30;;
10045;SDS011;5063;50.878;4.742;2022-12-18T14:58:55;20.80;;;12.30;;
10045;SDS011;5063;50.878;4.742;2022-12-18T15:01:25;19.77;;;13.37;;
10045;SDS011;5063;50.878;4.742;2022-12-18T15:03:54;22.43;;;13.50;;
10045;SDS011;5063;50.878;4.742;2022-12-18T15:06:24;20.00;;;12.83;;
10045;SDS011;5063;50.878;4.742;2022-12-18T15:08:52;18.47;;;13.00;;
10045;SDS011;5063;50.878;4.742;2022-12-18T15:11:26;21.83;;;14.17;;
10045;SDS011;5063;50.878;4.742;2022-12-18T15:13:52;23.97;;;14.13;;
10045;SDS011;5063;50.878;4.742;2022-12-18T15:16:17;23.53;;;13.83;;
10045;SDS011;5063;50.878;4.742;2022-12-18T15:18:43;23.40;;;14.63;;
10045;SDS011;5063;50.878;4.742;2022-12-18T15:21:10;19.27;;;12.93;;
10045;SDS011;5063;50.878;4.742;2022-12-18T15:26:13;21.50;;;13.87;;
10045;SDS011;5063;50.878;4.742;2022-12-18T15:28:48;25.23;;;14.67;;
10045;SDS011;5063;50.878;4.742;2022-12-18T15:33:41;21.00;;;12.77;;
10045;SDS011;5063;50.878;4.742;2022-12-18T15:36:25;26.23;;;13.83;;
10045;SDS011;5063;50.878;4.742;2022-12-18T15:38:52;27.03;;;14.33;;
10045;SDS011;5063;50.878;4.742;2022-12-18T15:41:20;21.57;;;12.80;;
10045;SDS011;5063;50.878;4.742;2022-12-18T15:43:50;21.50;;;13.87;;
10045;SDS011;5063;50.878;4.742;2022-12-18T15:46:18;24.50;;;14.63;;
10045;SDS011;5063;50.878;4.742;2022-12-18T15:48:46;26.67;;;14.27;;
10045;SDS011;5063;50.878;4.742;2022-12-18T15:51:15;24.70;;;15.13;;
10045;SDS011;5063;50.878;4.742;2022-12-18T15:53:55;26.30;;;15.43;;
10045;SDS011;5063;50.878;4.742;2022-12-18T15:56:23;25.47;;;15.07;;
10045;SDS011;5063;50.878;4.742;2022-12-18T15:59:11;23.47;;;14.80;;
10045;SDS011;5063;50.878;4.742;2022-12-18T16:01:38;21.63;;;13.23;;
10045;SDS011;5063;50.878;4.742;2022-12-18T16:04:05;23.13;;;14.23;;
10045;SDS011;5063;50.878;4.742;2022-12-18T16:06:31;26.73;;;14.23;;
10045;SDS011;5063;50.878;4.742;2022-12-18T16:08:56;29.10;;;15.40;;
10045;SDS011;5063;50.878;4.742;2022-12-18T16:16:40;25.87;;;14.73;;
10045;SDS011;5063;50.878;4.742;2022-12-18T16:19:06;25.07;;;15.50;;
10045;SDS011;5063;50.878;4.742;2022-12-18T16:21:32;23.00;;;14.73;;
10045;SDS011;5063;50.878;4.742;2022-12-18T16:23:58;25.63;;;15.23;;
10045;SDS011;5063;50.878;4.742;2022-12-18T16:26:24;23.50;;;15.47;;
10045;SDS011;5063;50.878;4.742;2022-12-18T16:28:49;25.47;;;15.27;;
10045;SDS011;5063;50.878;4.742;2022-12-18T16:31:15;27.40;;;15.00;;
10045;SDS011;5063;50.878;4.742;2022-12-18T16:33:41;23.83;;;14.63;;
10045;SDS011;5063;50.878;4.742;2022-12-18T16:36:07;25.33;;;15.27;;
10045;SDS011;5063;50.878;4.742;2022-12-18T16:38:33;22.20;;;14.83;;
10045;SDS011;5063;50.878;4.742;2022-12-18T16:40:58;26.20;;;16.10;;
10045;SDS011;5063;50.878;4.742;2022-12-18T16:43:42;22.57;;;14.27;;
10045;SDS011;5063;50.878;4.742;2022-12-18T16:46:08;23.73;;;14.50;;
10045;SDS011;5063;50.878;4.742;2022-12-18T16:48:34;25.33;;;15.00;;
10045;SDS011;5063;50.878;4.742;2022-12-18T16:51:00;28.17;;;15.53;;
10045;SDS011;5063;50.878;4.742;2022-12-18T16:53:28;27.87;;;15.53;;
10045;SDS011;5063;50.878;4.742;2022-12-18T16:55:54;25.57;;;14.40;;